Latest Coastal Weather Observations for Orbost

IDV60701

Issued at 5:11 pm EST Sunday 25 September 2016 (issued every 10 minutes, with the page automatically refreshed every 10 minutes)

About coastal observations | Map of coastal stations | Coastal observations for VIC | Marine services | Other Formats
Station Details ID: 084145 Name: ORBOST Lat: -37.69 Lon: 148.47 Height: 62.65 m
Data from the previous 72 hours. | See also: Recent months at Orbost
Date/Time
EST
Temp
°C
Wind Pressure Rain since
9am
mm
Weather Cloud Vis
km
Sea
Height
m
Swell
Dir  Spd
kts
Gust
kts
hPa Trend Height
m
Period
s
Dir
25/05:00pm 11.6 WSW 4 5 1010.8 - 0.0 - - - - - - -
25/04:30pm 11.5 W 2 5 1010.6 - 0.0 - - - - - - -
25/04:00pm 11.7 W 3 5 1010.4 - 0.0 - - - - - - -
25/03:30pm 11.5 SW 8 12 1010.2 - 0.0 - - - - - - -
25/03:00pm 11.8 SW 6 11 1010.1 - 0.0 - - - - - - -
25/02:30pm 11.9 SW 7 11 1009.9 - 0.0 - - - - - - -
25/02:00pm 11.9 SW 4 8 1009.8 - 0.0 - - - - - - -
25/01:30pm 11.5 WSW 3 5 1009.7 - 0.0 - - - - - - -
25/01:00pm 10.7 SW 7 13 1010.0 - 0.0 - - - - - - -
25/12:30pm 11.2 SW 7 11 1009.8 - 0.0 - - - - - - -
25/12:00pm 10.9 WSW 6 10 1009.7 - 0.0 - - - - - - -
25/11:30am 11.4 WSW 10 16 1009.5 - 0.0 - - - - - - -
25/11:00am 12.5 SW 12 19 1009.2 - 0.0 - - - - - - -
25/10:30am 13.2 WSW 10 15 1009.0 - 0.0 - - - - - - -
25/10:00am 12.6 WSW 8 12 1009.1 - 0.0 - - - - - - -
25/09:30am 12.4 WSW 9 16 1009.1 - 0.0 - - - - - - -
25/09:00am 12.1 WSW 9 14 1008.8 - 2.2 - - - - - - -
25/08:30am 12.4 WNW 5 9 1008.0 - 2.2 - - - - - - -
25/08:00am 12.4 W 4 8 1007.3 - 2.2 - - - - - - -
25/07:30am 12.4 NW 3 5 1006.7 - 2.2 - - - - - - -
25/07:00am 11.8 NNW 3 5 1006.3 - 2.2 - - - - - - -
25/06:30am 11.0 NNW 3 5 1006.0 - 2.2 - - - - - - -
25/06:00am 9.8 NNW 3 4 1005.7 - 2.2 - - - - - - -
25/05:30am 10.5 WSW 2 4 1005.6 - 2.2 - - - - - - -
25/05:00am 10.8 CALM 0 0 1005.2 - 2.2 - - - - - - -
25/04:30am 10.8 NNW 2 3 1005.2 - 2.2 - - - - - - -
25/04:00am 11.2 NW 1 2 1005.2 - 2.2 - - - - - - -
25/03:30am 11.7 NE 3 4 1005.1 - 2.2 - - - - - - -
25/03:00am 11.9 NNE 2 3 1005.6 - 2.2 Recent precip. - - - - - -
25/02:30am 12.5 N 3 4 1005.7 - 2.2 - - - - - - -
25/02:00am 11.9 NNW 1 2 1006.3 - 2.0 - - - - - - -
25/01:30am 12.2 NNE 3 5 1006.4 - 1.6 - - - - - - -
25/01:00am 12.3 WNW 2 3 1006.6 - 1.2 - - - - - - -
25/12:30am 12.8 N 4 7 1006.6 - 0.6 - - - - - - -
25/12:00am 13.3 N 4 6 1006.2 - 0.0 - - - - - - -
 
Date/Time
EST
Temp
°C
Wind Pressure Rain since
9am
mm
Weather Cloud Vis
km
Sea
Height
m
Swell
Dir  Spd
kts
Gust
kts
hPa Trend Height
m
Period
s
Dir
24/11:30pm 14.7 NNW 4 6 1005.9 - 0.0 - - - - - - -
24/11:00pm 13.7 NNW 4 7 1005.8 - 0.0 - - - - - - -
24/10:30pm 12.7 NNW 2 3 1005.6 - 0.0 - - - - - - -
24/10:00pm 12.0 NNW 2 2 1005.6 - 0.0 - - - - - - -
24/09:30pm 12.0 NNW 2 3 1005.7 - 0.0 - - - - - - -
24/09:00pm 12.9 CALM 0 0 1005.7 - 0.0 - - - - - - -
24/08:30pm 13.2 E 2 4 1005.9 - 0.0 - - - - - - -
24/08:00pm 13.3 SSE 1 2 1006.1 - 0.0 - - - - - - -
24/07:30pm 13.6 N 2 2 1006.0 - 0.0 - - - - - - -
24/07:00pm 15.1 NE 2 3 1005.8 - 0.0 - - - - - - -
24/06:30pm 15.4 NNE 3 4 1005.7 - 0.0 - - - - - - -
24/06:00pm 16.2 NE 2 4 1005.6 - 0.0 - - - - - - -
24/05:30pm 17.5 E 3 5 1005.4 - 0.0 - - - - - - -
24/05:00pm 18.3 ESE 4 6 1005.7 - 0.0 - - - - - - -
24/04:30pm 18.1 ESE 3 5 1005.7 - 0.0 - - - - - - -
24/04:00pm 18.0 SE 2 4 1005.7 - 0.0 - - - - - - -
24/03:30pm 18.7 SE 3 6 1005.7 - 0.0 - - - - - - -
24/03:00pm 19.5 SE 6 9 1005.2 - 0.0 - - - - - - -
24/02:30pm 19.2 SE 4 7 1005.4 - 0.0 - - - - - - -
24/02:00pm 18.5 SSE 4 6 1006.1 - 0.0 - - - - - - -
24/01:30pm 18.6 SSE 5 8 1006.7 - 0.0 - - - - - - -
24/01:00pm 18.6 SSE 4 6 1007.1 - 0.0 - - - - - - -
24/12:30pm 18.9 SSE 4 7 1007.6 - 0.0 - - - - - - -
24/12:00pm 19.0 SE 4 5 1007.9 - 0.0 - - - - - - -
24/11:30am 18.7 SSE 3 6 1008.5 - 0.0 - - - - - - -
24/11:00am 17.9 SE 3 4 1009.0 - 0.0 - - - - - - -
24/10:30am 17.0 SSE 2 4 1009.5 - 0.0 - - - - - - -
24/10:00am 16.4 SSE 2 5 1010.0 - 0.0 - - - - - - -
24/09:30am 15.1 SSW 1 2 1010.6 - 0.0 - - - - - - -
24/09:00am 13.9 CALM 0 1 1010.9 - 0.0 - - - - - - -
24/08:30am 12.2 S 1 2 1011.0 - 0.0 - - - - - - -
24/08:00am 11.4 S 2 2 1011.2 - 0.0 - - - - - - -
24/07:30am 10.3 CALM 0 0 1011.4 - 0.0 - - - - - - -
24/07:00am 8.5 CALM 0 0 1011.5 - 0.0 - - - - - - -
24/06:30am 8.4 NE 2 2 1011.2 - 0.0 - - - - - - -
24/06:00am 7.3 NE 1 2 1011.1 - 0.0 - - - - - - -
24/05:30am 6.9 NNW 2 3 1011.0 - 0.0 - - - - - - -
24/05:00am 6.4 NNW 3 4 1010.9 - 0.0 - - - - - - -
24/04:30am 7.7 CALM 0 3 1010.8 - 0.0 - - - - - - -
24/04:00am 7.1 E 3 3 1011.1 - 0.0 - - - - - - -
24/03:30am 7.6 ENE 2 3 1011.4 - 0.0 - - - - - - -
24/03:00am 8.1 CALM 0 2 1011.7 - 0.0 - - - - - - -
24/02:30am 6.7 WNW 2 3 1011.9 - 0.0 - - - - - - -
24/02:00am 7.8 CALM 0 0 1011.9 - 0.0 - - - - - - -
24/01:30am 8.1 CALM 0 0 1012.3 - 0.0 - - - - - - -
24/01:00am 7.8 CALM 0 0 1012.4 - 0.0 - - - - - - -
24/12:30am 8.6 CALM 0 0 1012.5 - 0.0 - - - - - - -
24/12:00am 8.3 CALM 0 0 1012.5 - 0.0 - - - - - - -
 
Date/Time
EST
Temp
°C
Wind Pressure Rain since
9am
mm
Weather Cloud Vis
km
Sea
Height
m
Swell
Dir  Spd
kts
Gust
kts
hPa Trend Height
m
Period
s
Dir
23/11:30pm 8.7 CALM 0 0 1012.7 - 0.0 - - - - - - -
23/11:00pm 8.7 NNW 1 2 1012.8 - 0.0 - - - - - - -
23/10:30pm 8.8 N 1 1 1013.1 - 0.0 - - - - - - -
23/10:00pm 9.0 CALM 0 0 1013.4 - 0.0 - - - - - - -
23/09:30pm 9.2 W 1 2 1013.5 - 0.0 - - - - - - -
23/09:00pm 10.3 E 4 6 1013.5 - 0.0 - - - - - - -
23/08:30pm 10.7 NE 2 3 1013.8 - 0.0 - - - - - - -
23/08:00pm 11.1 ENE 4 6 1013.9 - 0.0 - - - - - - -
23/07:30pm 10.4 E 3 4 1014.1 - 0.0 - - - - - - -
23/07:00pm 10.7 E 2 3 1014.1 - 0.0 - - - - - - -
23/06:30pm 11.2 E 1 3 1014.0 - 0.0 - - - - - - -
23/06:00pm 12.2 E 1 1 1014.1 - 0.0 - - - - - - -
23/05:30pm 13.4 ENE 2 4 1014.2 - 0.0 - - - - - - -
23/05:00pm 13.7 E 3 4 1014.3 - 0.0 - - - - - - -
23/04:30pm 13.6 SE 2 3 1014.5 - 0.0 - - - - - - -
23/04:00pm 13.7 SSE 2 4 1014.3 - 0.0 - - - - - - -
23/03:30pm 13.7 SSE 3 5 1014.4 - 0.0 - - - - - - -
23/03:00pm 14.1 S 4 7 1014.5 - 0.0 - - - - - - -
23/02:30pm 14.6 S 3 6 1014.8 - 0.0 - - - - - - -
23/02:00pm 14.9 WSW 3 5 1015.0 - 0.0 - - - - - - -
23/01:30pm 14.3 SW 4 7 1015.4 - 0.0 - - - - - - -
23/01:00pm 14.6 WSW 5 8 1015.7 - 0.0 - - - - - - -
23/12:30pm 14.3 WSW 6 8 1016.1 - 0.0 - - - - - - -
23/12:00pm 12.9 WSW 5 6 1016.4 - 0.0 - - - - - - -
23/11:30am 12.6 W 4 7 1016.7 - 0.0 - - - - - - -
23/11:00am 12.3 WNW 5 8 1016.8 - 0.0 - - - - - - -
23/10:30am 11.9 W 5 8 1017.1 - 0.0 - - - - - - -
23/10:00am 11.6 WNW 4 7 1017.3 - 0.0 - - - - - - -
23/09:30am 11.3 WNW 5 8 1017.4 - 0.0 - - - - - - -
23/09:00am 11.1 WNW 5 7 1017.4 - 28.8 - - - - - - -
23/08:30am 10.9 WNW 5 8 1017.4 - 28.8 - - - - - - -
23/08:00am 10.6 WNW 4 7 1017.4 - 28.8 - - - - - - -
23/07:30am 10.3 WNW 4 7 1017.1 - 28.8 - - - - - - -
23/07:00am 9.8 WNW 5 8 1017.1 - 28.8 - - - - - - -
23/06:30am 9.8 WNW 5 8 1017.0 - 28.8 - - - - - - -
23/06:00am 9.7 WNW 6 8 1016.8 - 28.8 - - - - - - -
23/05:30am 9.6 W 5 7 1016.5 - 28.8 - - - - - - -
23/05:00am 9.7 W 5 8 1016.3 - 28.8 - - - - - - -
23/04:30am 9.7 W 6 9 1016.1 - 28.8 - - - - - - -
23/04:00am 9.7 WNW 6 9 1015.9 - 28.8 - - - - - - -
23/03:30am 9.8 W 6 10 1015.9 - 28.6 - - - - - - -
23/03:00am 9.8 W 6 9 1015.7 - 28.6 - - - - - - -
23/02:30am 9.8 W 5 9 1015.6 - 28.6 - - - - - - -
23/02:00am 9.9 W 5 8 1015.6 - 28.6 - - - - - - -
23/01:30am 9.9 W 4 8 1015.8 - 28.6 - - - - - - -
23/01:00am 10.0 W 6 10 1016.1 - 28.6 - - - - - - -
23/12:30am 10.0 W 7 12 1016.2 - 28.2 - - - - - - -
23/12:00am 10.0 W 7 13 1016.3 - 26.8 Rain - - - - - -
 
Date/Time
EST
Temp
°C
Wind Pressure Rain since
9am
mm
Weather Cloud Vis
km
Sea
Height
m
Swell
Dir  Spd
kts
Gust
kts
hPa Trend Height
m
Period
s
Dir
22/11:30pm 10.2 W 6 9 1016.2 - 25.6 - - - - - - -
22/11:00pm 10.3 W 8 15 1016.2 - 25.0 - - - - - - -
22/10:30pm 10.4 W 7 10 1016.2 - 24.4 - - - - - - -
22/10:00pm 10.5 W 7 12 1016.1 - 23.0 - - - - - - -
22/09:30pm 10.8 WSW 9 14 1016.0 - 21.6 - - - - - - -
22/09:00pm 10.9 W 9 13 1015.8 - 20.8 Rain - - - - - -
22/08:30pm 11.2 WSW 8 16 1015.8 - 19.2 - - - - - - -
22/08:00pm 11.1 WSW 11 17 1015.7 - 18.8 - - - - - - -
22/07:30pm 11.0 WSW 12 21 1015.5 - 18.2 - - - - - - -
22/07:00pm 11.0 WSW 9 14 1015.3 - 16.8 - - - - - - -
22/06:30pm 10.9 WSW 10 15 1015.0 - 15.6 - - - - - - -
22/06:00pm 11.1 WSW 12 20 1014.7 - 14.8 Rain - - - - - -
22/05:30pm 11.0 WSW 12 19 1014.3 - 14.4 - - - - - - -

Other Formats:

Comma delimited format used in spreadsheet applications
http://www.bom.gov.au/fwo/IDV60701/IDV60701.95918.axf

JavaScript Object Notation format (JSON) in row-major order
http://www.bom.gov.au/fwo/IDV60701/IDV60701.95918.json